Nearby METAR Reports

 

KCMH - Columbus, Ohio, USA
Distance from station: SW 5mi, 8km
Updated: Mon, 23-Oct-2017 12:51pm EDT
Rain, Mist, Overcast
Rain, Mist, Overcast
 Wind from SE
Wind: SE 16 mph , 26 km/h, Gust: 24 mph , 39 km/h
Temperature: 64°F , 18°C
Dew Point: 63°F , 17°C
Humidity: 94%
Barometer: 29.78 inHg , 1008.5 hPa
Summary: Rain, Mist
Clouds: Overcast
Visibility: 4 miles , 6 km
Cloud details: Few Clouds 1100 ft
Mostly cloudy 1400 ft
Overcast 7500 ft
2017/10/23 16:51 KCMH 231651Z 13014G21KT 4SM RA BR FEW011 BKN014 OVC075 18/17 A2978 RMK AO2 PRESFR SLP080 P0008 T01780172
KOSU - Columbus/St Univ, Ohio, USA
Distance from station: W 14mi, 23km
Updated: Mon, 23-Oct-2017 1:03pm EDT
Light rain, Overcast
Light rain, Overcast
 Wind from SE
Wind: SE 14 mph , 22 km/h, Gust: 23 mph , 37 km/h
Temperature: 64°F , 18°C
Dew Point: 64°F , 18°C
Humidity: 100%
Barometer: 29.76 inHg , 1007.8 hPa
Summary: Light rain
Clouds: Overcast
Visibility: 7 miles , 11 km
Cloud details: Mostly cloudy 800 ft
Mostly cloudy 1200 ft
Overcast 3200 ft
2017/10/23 17:03 KOSU 231703Z 13012G20KT 7SM -RA BKN008 BKN012 OVC032 18/18 A2976 RMK AO2 P0001 T01780178
 
KLCK - Rickenbacker Ang, Ohio, USA
Distance from station: SSW 17mi, 27km
Updated: Mon, 23-Oct-2017 12:55pm EDT
Overcast
Overcast
 Wind from SE
Wind: SE 15 mph , 24 km/h, Gust: 21 mph , 33 km/h
Temperature: 63°F , 17°C
Dew Point: 63°F , 17°C
Humidity: 100%
Barometer: 29.76 inHg , 1007.8 hPa
Clouds: Overcast
Visibility: 10 miles , 16 km
Cloud details: Partly cloudy 900 ft
Mostly cloudy 3500 ft
Overcast 4200 ft
2017/10/23 16:55 KLCK 231655Z AUTO 13013G18KT 10SM SCT009 BKN035 OVC042 17/17 A2976 RMK AO2 T01720173 PWINO
KVTA - Newark, Ohio, USA
Distance from station: E 19mi, 30km
Updated: Mon, 23-Oct-2017 1:01pm EDT
Light rain, Mist, Overcast
Light rain, Mist, Overcast
 Wind from SE
Wind: SE 7 mph , 11 km/h
Temperature: 64°F , 18°C
Dew Point: 61°F , 16°C
Humidity: 88%
Barometer: 29.80 inHg , 1009.1 hPa
Summary: Light rain, Mist
Clouds: Overcast
Visibility: 6 miles , 10 km
Cloud details: Mostly cloudy 1200 ft
Mostly cloudy 4900 ft
Overcast 6500 ft
2017/10/23 17:01 KVTA 231701Z AUTO 14006KT 6SM -RA BR BKN012 BKN049 OVC065 18/16 A2980 RMK AO2 PRESFR P0001 T01780161
 
KTZR - Columbus/Bolton, Ohio, USA
Distance from station: WSW 20mi, 31km
Updated: Mon, 23-Oct-2017 12:50pm EDT
Light rain, Overcast
Light rain, Overcast
 Wind from SE
Wind: SE 14 mph , 22 km/h, Gust: 23 mph , 37 km/h
Temperature: 63°F , 17°C
Dew Point: 63°F , 17°C
Humidity: 100%
Barometer: 29.77 inHg , 1008.1 hPa
Summary: Light rain
Clouds: Overcast
Visibility: 7 miles , 11 km
Cloud details: Mostly cloudy 800 ft
Overcast 2700 ft
2017/10/23 16:50 KTZR 231650Z 14012G20KT 7SM -RA BKN008 OVC027 17/17 A2977
KLHQ - Lancaster, Ohio, USA
Distance from station: SSE 22mi, 36km
Updated: Mon, 23-Oct-2017 12:53pm EDT
Light rain, Overcast
Light rain, Overcast
 Wind from SE
Wind: SE 12 mph , 19 km/h
Temperature: 63°F , 17°C
Dew Point: 63°F , 17°C
Humidity: 100%
Barometer: 29.80 inHg , 1009.1 hPa
Summary: Light rain
Clouds: Overcast
Visibility: 7 miles , 11 km
Cloud details: Partly cloudy 3600 ft
Mostly cloudy 5000 ft
Overcast 11000 ft
2017/10/23 16:53 KLHQ 231653Z AUTO 14010KT 7SM -RA SCT036 BKN050 OVC110 17/17 A2980 RMK AO2 SLP087 P0021 T01720167
 
KDLZ - Delaware, Ohio, USA
Distance from station: NW 23mi, 36km
Updated: Mon, 23-Oct-2017 12:56pm EDT
Drizzle, Overcast
Drizzle, Overcast
 Wind from SE
Wind: SE 18 mph , 30 km/h, Gust: 24 mph , 39 km/h
Temperature: 63°F , 17°C
Dew Point: 61°F , 16°C
Humidity: 94%
Barometer: 29.78 inHg , 1008.5 hPa
Summary: Drizzle
Clouds: Overcast
Visibility: 10 miles , 16 km
Cloud details: Overcast 1400 ft
2017/10/23 16:56 KDLZ 231656Z AUTO 13016G21KT 10SM DZ OVC014 17/16 A2978 RMK AO2 P0001
K4I3 - Mt Vernon/Knox, Ohio, USA
Distance from station: NE 25mi, 40km
Updated: Mon, 23-Oct-2017 1:07pm EDT
Heavy rain, Overcast
Heavy rain, Overcast
 Wind from SSE
Wind: SSE 14 mph , 22 km/h
Temperature: 63°F , 17°C
Dew Point: 61°F , 16°C
Humidity: 94%
Barometer: 29.84 inHg , 1010.5 hPa
Summary: Heavy rain
Clouds: Overcast
Visibility: 5 miles , 8 km
Cloud details: Mostly cloudy 1000 ft
Overcast 1400 ft
2017/10/23 17:07 K4I3 231707Z AUTO 15012KT 5SM +RA BKN010 OVC014 17/16 A2984 RMK AO2 P0003
 
KMRT - Marysville, Ohio, USA
Distance from station: WNW 30mi, 49km
Updated: Mon, 23-Oct-2017 12:53pm EDT
Overcast
Overcast
 Wind from S
Wind: S 8 mph , 13 km/h
Temperature: 63°F , 17°C
Dew Point: 61°F , 16°C
Humidity: 94%
Barometer: 29.77 inHg , 1008.1 hPa
Clouds: Overcast
Visibility: 7 miles , 11 km
Cloud details: Overcast 900 ft
2017/10/23 16:53 KMRT 231653Z AUTO 17007KT 140V200 7SM OVC009 17/16 A2977 RMK AO2 P0012 T01700158
KMNN - Marion, Ohio, USA
Distance from station: NNW 41mi, 67km
Updated: Mon, 23-Oct-2017 12:53pm EDT
Light rain, Overcast
Light rain, Overcast
 Wind from SSE
Wind: SSE 20 mph , 31 km/h, Gust: 24 mph , 39 km/h
Temperature: 64°F , 18°C
Dew Point: 61°F , 16°C
Humidity: 88%
Barometer: 29.79 inHg , 1008.8 hPa
Summary: Light rain
Clouds: Overcast
Visibility: 9 miles , 14 km
Cloud details: Mostly cloudy 1800 ft
Mostly cloudy 4800 ft
Overcast 10000 ft
2017/10/23 16:53 KMNN 231653Z AUTO 15017G21KT 9SM -RA BKN018 BKN048 OVC100 18/16 A2979 RMK AO2 SLP084 P0005 T01780156
 
KZZV - Zanesville, Ohio, USA
Distance from station: E 49mi, 79km
Updated: Mon, 23-Oct-2017 1:00pm EDT
Light rain, Mist, Overcast
Light rain, Mist, Overcast
 Wind from SE
Wind: SE 12 mph , 19 km/h, Gust: 20 mph , 31 km/h
Temperature: 63°F , 17°C
Dew Point: 61°F , 16°C
Humidity: 94%
Barometer: 29.84 inHg , 1010.5 hPa
Summary: Light rain, Mist
Clouds: Overcast
Visibility: 6 miles , 10 km
Cloud details: Overcast 1000 ft
2017/10/23 17:00 KZZV 231700Z AUTO 14010G17KT 6SM -RA BR OVC010 17/16 A2984 RMK AO2 CIG 007V017 P0000 T01720156